Time;durP1;ratioP1;P1;durP2;ratioP2;P2;SDS_P1;SDS_P2;PMS_P1;PMS_P2;Temp;Humidity;BMP_temperature;BMP_pressure;BME280_temperature;BME280_humidity;BME280_pressure;Samples;Min_cycle;Max_cycle;Signal;HPM_P1;HPM_P2
2022/08/11 00:01:27;;;;;;;4.85;4.20;;;23.00;42.00;;;;;;5038396;28;20192;-84
2022/08/11 00:04:03;;;;;;;3.70;3.40;;;22.90;42.40;;;;;;5039654;28;20180;-85
2022/08/11 00:06:33;;;;;;;6.47;3.90;;;22.90;42.10;;;;;;5038746;28;20181;-84
2022/08/11 00:09:01;;;;;;;4.15;3.85;;;23.00;41.60;;;;;;5037030;28;20217;-85
2022/08/11 00:11:54;;;;;;;3.78;3.58;;;23.00;41.30;;;;;;5043099;28;20185;-85
2022/08/11 00:14:24;;;;;;;4.30;3.95;;;22.90;41.60;;;;;;5039470;28;20201;-85
2022/08/11 00:17:00;;;;;;;4.43;3.67;;;23.00;41.90;;;;;;5040503;28;20249;-84
2022/08/11 00:19:28;;;;;;;5.53;3.72;;;23.30;41.80;;;;;;5034142;28;20207;-85
2022/08/11 00:21:55;;;;;;;4.40;4.00;;;23.50;41.40;;;;;;5044914;28;20188;-85
2022/08/11 00:24:22;;;;;;;3.92;3.63;;;23.70;40.80;;;;;;5043488;28;20185;-85
2022/08/11 00:26:54;;;;;;;4.30;3.72;;;23.70;40.60;;;;;;5033311;28;20197;-85
2022/08/11 00:29:21;;;;;;;4.15;3.85;;;23.80;40.70;;;;;;5040535;28;20224;-86
2022/08/11 00:31:52;;;;;;;4.20;3.90;;;23.80;40.50;;;;;;5038272;28;20656;-84
2022/08/11 00:34:24;;;;;;;3.80;3.50;;;23.90;40.80;;;;;;5034725;28;20235;-85
2022/08/11 00:36:54;;;;;;;4.05;3.75;;;23.90;40.80;;;;;;5045703;28;20548;-84
2022/08/11 00:39:22;;;;;;;4.32;3.72;;;24.00;40.80;;;;;;5037519;28;20205;-84
2022/08/11 00:42:06;;;;;;;4.00;3.70;;;23.60;40.10;;;;;;5030230;28;20188;-84
2022/08/11 00:44:32;;;;;;;4.10;3.67;;;23.10;41.90;;;;;;5042548;28;20211;-85
2022/08/11 00:47:32;;;;;;;3.80;3.60;;;23.20;42.40;;;;;;5033618;28;20668;-84
2022/08/11 00:50:19;;;;;;;4.00;3.63;;;23.30;42.50;;;;;;5032861;28;20304;-84
2022/08/11 00:53:11;;;;;;;4.43;4.03;;;23.30;42.30;;;;;;5042318;28;20675;-84
2022/08/11 00:56:15;;;;;;;4.30;3.90;;;23.40;42.00;;;;;;5035542;28;20193;-86
2022/08/11 00:58:52;;;;;;;3.90;3.60;;;23.60;42.20;;;;;;5041750;28;20208;-85
2022/08/11 01:01:28;;;;;;;4.93;4.57;;;23.40;42.20;;;;;;5045340;28;20243;-84
2022/08/11 01:04:22;;;;;;;4.53;4.18;;;23.40;41.90;;;;;;5041412;28;20207;-85
2022/08/11 01:07:32;;;;;;;4.28;3.92;;;23.30;41.50;;;;;;5033615;28;20522;-85
2022/08/11 01:10:12;;;;;;;4.25;3.90;;;23.30;42.90;;;;;;5032074;28;20216;-85
2022/08/11 01:13:12;;;;;;;5.13;4.20;;;23.20;42.80;;;;;;5034713;28;20528;-84
2022/08/11 01:16:11;;;;;;;5.03;3.70;;;22.90;43.70;;;;;;5033447;28;20185;-85
2022/08/11 01:19:10;;;;;;;4.18;3.88;;;23.00;43.30;;;;;;5041388;28;20209;-86
2022/08/11 01:21:51;;;;;;;3.95;3.53;;;22.90;43.60;;;;;;5037155;28;20256;-84
2022/08/11 01:24:38;;;;;;;4.78;3.85;;;22.90;43.70;;;;;;5045130;28;20169;-84
2022/08/11 01:27:12;;;;;;;3.90;3.70;;;23.00;43.20;;;;;;5044838;28;20184;-85
2022/08/11 01:30:02;;;;;;;4.60;4.20;;;23.10;43.00;;;;;;5032500;28;20201;-84
2022/08/11 01:32:48;;;;;;;4.60;4.13;;;23.10;43.00;;;;;;5028055;28;20197;-84
2022/08/11 01:35:29;;;;;;;4.10;3.70;;;23.00;42.70;;;;;;5038332;28;20526;-84
2022/08/11 01:38:26;;;;;;;4.00;3.70;;;23.00;43.30;;;;;;5038007;28;20238;-85
2022/08/11 01:41:05;;;;;;;3.83;3.60;;;23.10;43.40;;;;;;5040616;28;20196;-85
2022/08/11 01:50:15;;;;;;;5.30;3.63;;;23.30;42.80;;;;;;5013879;28;20283;-85
2022/08/11 01:53:00;;;;;;;3.78;3.47;;;23.20;42.10;;;;;;5044081;28;20187;-84
2022/08/11 01:55:59;;;;;;;3.92;3.65;;;23.00;42.50;;;;;;5056562;28;20169;-86
2022/08/11 01:59:07;;;;;;;4.25;3.95;;;22.80;42.10;;;;;;5048787;28;20236;-83
2022/08/11 02:02:44;;;;;;;4.45;4.15;;;22.70;42.60;;;;;;5038404;28;20193;-86
2022/08/11 02:05:37;;;;;;;4.35;4.05;;;22.60;42.60;;;;;;4972765;28;20195;-84
2022/08/11 02:08:21;;;;;;;3.92;3.63;;;22.40;43.00;;;;;;5030380;28;20223;-84
2022/08/11 02:13:44;;;;;;;4.05;3.83;;;21.90;44.90;;;;;;5032085;28;20241;-85
2022/08/11 02:16:49;;;;;;;3.83;3.53;;;21.70;46.10;;;;;;5039778;28;20215;-85
2022/08/11 02:25:42;;;;;;;3.95;3.60;;;21.80;44.10;;;;;;5040941;28;20188;-85
2022/08/11 02:28:14;;;;;;;3.83;3.55;;;21.80;44.60;;;;;;5033459;28;20259;-86
2022/08/11 02:34:07;;;;;;;4.50;3.70;;;21.80;44.70;;;;;;5033053;28;20216;-85
2022/08/11 02:36:44;;;;;;;4.55;4.03;;;21.70;44.70;;;;;;5040564;28;20211;-84
2022/08/11 02:39:13;;;;;;;4.45;4.10;;;21.80;44.70;;;;;;5038179;28;20196;-84
2022/08/11 02:44:54;;;;;;;4.35;4.05;;;21.70;44.70;;;;;;5040561;28;20250;-85
2022/08/11 02:50:41;;;;;;;4.10;3.80;;;22.00;43.60;;;;;;5020202;28;20304;-85
2022/08/11 02:53:15;;;;;;;4.25;3.85;;;22.10;43.60;;;;;;5039546;28;20203;-84
2022/08/11 02:55:44;;;;;;;4.45;4.13;;;22.20;43.30;;;;;;5024672;28;20200;-85
2022/08/11 02:58:25;;;;;;;3.88;3.67;;;22.20;43.80;;;;;;5024611;28;20249;-85
2022/08/11 03:01:17;;;;;;;4.28;3.90;;;22.30;43.50;;;;;;5029480;28;20189;-84
2022/08/11 03:04:12;;;;;;;4.40;4.00;;;22.10;43.90;;;;;;5036430;28;20190;-84
2022/08/11 03:07:19;;;;;;;3.95;3.67;;;21.80;45.00;;;;;;5031279;28;20185;-84
2022/08/11 03:10:14;;;;;;;4.93;3.90;;;21.50;44.60;;;;;;5012188;28;20217;-84
2022/08/11 03:18:25;;;;;;;4.30;4.00;;;21.50;46.00;;;;;;5039004;28;20235;-85
2022/08/11 03:21:16;;;;;;;4.05;3.75;;;21.50;46.70;;;;;;5039218;28;20181;-84
2022/08/11 03:24:13;;;;;;;3.97;3.72;;;21.50;46.60;;;;;;5037165;28;20544;-85
2022/08/11 03:27:06;;;;;;;4.55;4.15;;;21.70;45.90;;;;;;5034047;28;20185;-85
2022/08/11 03:29:50;;;;;;;4.75;4.10;;;21.80;46.10;;;;;;5035275;28;20216;-84
2022/08/11 03:32:29;;;;;;;4.50;4.20;;;21.90;45.50;;;;;;5040308;28;20765;-85
2022/08/11 03:35:00;;;;;;;15.88;14.48;;;21.90;45.50;;;;;;5037907;28;20193;-85
2022/08/11 03:37:50;;;;;;;7.50;4.28;;;22.00;45.80;;;;;;5044542;28;20217;-85
2022/08/11 03:43:27;;;;;;;5.43;4.20;;;21.90;46.00;;;;;;5040483;28;20248;-84
2022/08/11 03:46:15;;;;;;;6.32;4.32;;;21.90;45.40;;;;;;5038540;28;20284;-84
2022/08/11 03:49:14;;;;;;;7.63;4.53;;;22.00;45.40;;;;;;5036839;28;20739;-84
2022/08/11 03:51:59;;;;;;;10.60;5.57;;;21.90;46.10;;;;;;5036548;28;20272;-83
2022/08/11 03:54:43;;;;;;;7.53;5.10;;;21.90;46.40;;;;;;5034936;28;20203;-84
2022/08/11 03:57:36;;;;;;;5.57;4.32;;;21.90;46.00;;;;;;5029216;28;20367;-84
2022/08/11 04:00:19;;;;;;;8.27;4.70;;;21.90;45.90;;;;;;5031744;28;20214;-84
2022/08/11 04:03:11;;;;;;;6.60;4.43;;;21.60;46.10;;;;;;5037624;28;20256;-85
2022/08/11 04:06:12;;;;;;;6.15;4.60;;;21.40;47.00;;;;;;5042268;28;20184;-84
2022/08/11 04:09:05;;;;;;;4.53;4.22;;;21.40;46.50;;;;;;5013358;28;20617;-84
2022/08/11 04:11:58;;;;;;;4.35;4.05;;;21.20;45.80;;;;;;5039901;28;20200;-84
2022/08/11 04:17:56;;;;;;;4.95;4.45;;;21.20;46.10;;;;;;5031607;28;20216;-83
2022/08/11 04:20:30;;;;;;;7.68;4.57;;;21.30;46.50;;;;;;5040779;28;20200;-84
2022/08/11 04:23:05;;;;;;;9.38;4.40;;;21.20;46.70;;;;;;5032562;28;20197;-84
2022/08/11 04:25:48;;;;;;;6.00;4.15;;;21.20;46.30;;;;;;5038452;28;20196;-84
2022/08/11 04:28:23;;;;;;;5.95;4.75;;;21.10;46.90;;;;;;5035762;28;20217;-84
2022/08/11 04:31:05;;;;;;;5.35;4.95;;;21.30;46.50;;;;;;5031711;28;20188;-83
2022/08/11 04:33:33;;;;;;;4.78;4.38;;;21.30;46.10;;;;;;5028151;28;20200;-83
2022/08/11 04:40:01;;;;;;;4.50;4.20;;;21.30;46.10;;;;;;5014165;28;20280;-83
2022/08/11 04:46:17;;;;;;;5.40;4.28;;;21.50;46.10;;;;;;5045803;28;20315;-81
2022/08/11 05:02:14;;;;;;;7.82;4.28;;;21.60;45.60;;;;;;5029346;28;20203;-83
2022/08/11 05:08:11;;;;;;;5.72;4.55;;;21.70;45.50;;;;;;5037431;28;20211;-84
2022/08/11 05:10:57;;;;;;;6.43;4.40;;;21.40;46.50;;;;;;5033750;28;20246;-84
2022/08/11 05:36:50;;;;;;;4.70;4.30;;;20.50;49.50;;;;;;5029324;28;20747;-85
2022/08/11 05:56:19;;;;;;;6.68;4.60;;;20.60;49.90;;;;;;5028763;28;20243;-86
2022/08/11 05:58:51;;;;;;;4.47;4.15;;;20.70;49.20;;;;;;5036885;28;20201;-83
2022/08/11 06:01:25;;;;;;;4.60;4.20;;;20.70;48.90;;;;;;5015835;28;20196;-83
2022/08/11 06:06:39;;;;;;;4.80;4.40;;;20.80;48.20;;;;;;5036092;28;20211;-84
2022/08/11 06:09:06;;;;;;;4.55;4.15;;;20.80;48.70;;;;;;5031168;28;20210;-84
2022/08/11 06:11:40;;;;;;;6.22;4.30;;;20.80;48.60;;;;;;5034476;28;20257;-84
2022/08/11 06:14:08;;;;;;;4.60;4.20;;;20.90;48.60;;;;;;5039283;28;20220;-84
2022/08/11 06:16:34;;;;;;;6.15;4.32;;;20.90;47.80;;;;;;5037071;28;20197;-84
2022/08/11 06:19:01;;;;;;;6.28;4.22;;;20.90;47.90;;;;;;5031123;28;20205;-84
2022/08/11 06:21:27;;;;;;;4.72;4.32;;;21.00;47.60;;;;;;5027896;28;20185;-83
2022/08/11 06:23:54;;;;;;;4.88;4.35;;;21.10;47.90;;;;;;5036572;28;20205;-81
2022/08/11 06:26:20;;;;;;;5.38;4.18;;;21.20;47.40;;;;;;5031823;28;20206;-84
2022/08/11 06:28:47;;;;;;;4.32;3.97;;;21.20;46.90;;;;;;5036689;28;20589;-84
2022/08/11 06:31:17;;;;;;;4.78;4.38;;;21.20;46.40;;;;;;5034937;28;20264;-85
2022/08/11 06:34:11;;;;;;;5.10;4.70;;;21.30;47.00;;;;;;5030729;28;20653;-85
2022/08/11 06:36:53;;;;;;;8.98;4.90;;;21.40;47.20;;;;;;5036571;28;20238;-84
2022/08/11 06:39:32;;;;;;;4.70;4.30;;;21.50;45.90;;;;;;5033974;28;20199;-84
2022/08/11 06:42:05;;;;;;;4.50;4.10;;;21.80;45.90;;;;;;5033706;28;20654;-83
2022/08/11 06:45:17;;;;;;;4.63;3.83;;;21.90;44.70;;;;;;5026965;28;20182;-84
2022/08/11 06:47:46;;;;;;;8.88;4.75;;;22.00;44.10;;;;;;4968216;28;20192;-84
2022/08/11 06:53:09;;;;;;;4.60;4.30;;;22.20;41.60;;;;;;5013463;28;20219;-85
2022/08/11 07:01:45;;;;;;;4.57;4.18;;;22.70;40.70;;;;;;4995833;28;20186;-84
2022/08/11 07:04:16;;;;;;;5.00;4.28;;;22.80;40.20;;;;;;5030682;28;20219;-85
2022/08/11 07:15:43;;;;;;;4.70;4.20;;;23.20;40.10;;;;;;5043472;28;20287;-85
2022/08/11 07:29:38;;;;;;;8.10;4.40;;;23.60;38.90;;;;;;5034823;28;20263;-84
2022/08/11 07:32:25;;;;;;;4.78;4.35;;;23.70;38.50;;;;;;5042724;28;20277;-81
2022/08/11 07:35:16;;;;;;;4.85;4.15;;;23.70;38.40;;;;;;5053056;28;20256;-81
2022/08/11 07:37:46;;;;;;;6.32;4.30;;;23.80;38.40;;;;;;5033437;28;20237;-85
2022/08/11 07:40:13;;;;;;;5.03;4.30;;;23.90;38.20;;;;;;5038675;28;20706;-85
2022/08/11 07:42:45;;;;;;;4.85;4.25;;;24.00;38.30;;;;;;5040094;28;20700;-83
2022/08/11 07:53:28;;;;;;;4.85;4.45;;;24.40;38.00;;;;;;5037585;28;20204;-83
2022/08/11 07:55:59;;;;;;;4.75;4.32;;;24.40;37.50;;;;;;5041043;28;20189;-84
2022/08/11 08:18:00;;;;;;;5.18;4.55;;;25.70;35.00;;;;;;5033891;28;20258;-83
2022/08/11 08:20:48;;;;;;;5.13;4.63;;;25.70;34.90;;;;;;5037969;28;20246;-81
2022/08/11 08:23:14;;;;;;;4.75;4.30;;;25.90;34.90;;;;;;5035750;28;20177;-84
2022/08/11 08:25:43;;;;;;;5.38;4.95;;;25.90;34.10;;;;;;5038205;28;20188;-84
2022/08/11 08:28:13;;;;;;;5.57;5.07;;;26.10;34.90;;;;;;5028191;28;20185;-84
2022/08/11 08:30:46;;;;;;;4.82;4.35;;;26.20;34.40;;;;;;5032283;28;20193;-84
2022/08/11 08:33:21;;;;;;;7.18;4.65;;;26.30;33.90;;;;;;5033406;28;20193;-83
2022/08/11 08:35:50;;;;;;;5.35;4.80;;;26.40;33.70;;;;;;5031092;28;20427;-82
2022/08/11 08:38:16;;;;;;;5.60;4.78;;;26.50;34.50;;;;;;5037672;28;20668;-82
2022/08/11 08:40:45;;;;;;;4.55;4.15;;;26.60;32.90;;;;;;5031299;28;20695;-85
2022/08/11 08:43:14;;;;;;;4.97;4.57;;;26.70;32.80;;;;;;5031449;28;20284;-84
2022/08/11 08:45:41;;;;;;;6.10;4.82;;;26.80;32.60;;;;;;5037505;28;20189;-81
2022/08/11 08:48:29;;;;;;;5.18;4.68;;;26.90;32.90;;;;;;5029908;28;20185;-84
2022/08/11 08:53:54;;;;;;;4.63;4.32;;;27.20;32.80;;;;;;5038277;28;20192;-83
2022/08/11 08:56:26;;;;;;;5.05;4.65;;;27.40;31.70;;;;;;5036991;28;20224;-85
2022/08/11 08:58:53;;;;;;;4.75;4.30;;;27.60;31.80;;;;;;5039094;28;20197;-83
2022/08/11 09:01:21;;;;;;;6.18;4.60;;;27.80;30.60;;;;;;5029793;28;20177;-83
2022/08/11 09:03:47;;;;;;;5.97;4.65;;;27.90;30.10;;;;;;5027991;28;20189;-83
2022/08/11 09:06:17;;;;;;;5.10;4.60;;;28.00;29.90;;;;;;5034762;28;20265;-80
2022/08/11 09:08:44;;;;;;;6.28;4.50;;;28.20;30.00;;;;;;5039856;28;20272;-80
2022/08/11 09:13:56;;;;;;;5.40;4.80;;;28.40;29.80;;;;;;5032116;28;20207;-84
2022/08/11 09:16:23;;;;;;;5.35;4.95;;;28.60;29.90;;;;;;5034534;28;20545;-84
2022/08/11 09:18:50;;;;;;;4.78;4.38;;;28.70;29.60;;;;;;5036128;28;20239;-83
2022/08/11 09:21:19;;;;;;;5.25;4.68;;;28.90;29.30;;;;;;5035130;28;20201;-83
2022/08/11 09:29:15;;;;;;;5.07;4.60;;;29.00;29.30;;;;;;5029003;28;20710;-84
2022/08/11 09:31:41;;;;;;;4.68;4.38;;;29.10;29.10;;;;;;5031728;28;20198;-84
2022/08/11 09:34:12;;;;;;;4.47;4.18;;;29.40;28.50;;;;;;5030857;28;20189;-84
2022/08/11 09:42:12;;;;;;;5.10;4.70;;;29.60;28.80;;;;;;5031347;28;20253;-81
2022/08/11 09:44:48;;;;;;;4.55;4.22;;;29.70;28.10;;;;;;5029072;28;20213;-81
2022/08/11 09:47:41;;;;;;;7.57;4.65;;;29.80;28.10;;;;;;5038893;28;20180;-83
2022/08/11 09:50:10;;;;;;;4.55;4.25;;;29.80;27.70;;;;;;5029952;28;20240;-85
2022/08/11 09:52:38;;;;;;;5.22;4.50;;;29.90;27.10;;;;;;5036246;28;20192;-83
2022/08/11 09:55:09;;;;;;;5.00;4.60;;;30.00;27.60;;;;;;5037762;28;20259;-81
2022/08/11 10:00:30;;;;;;;5.63;5.22;;;30.20;27.10;;;;;;5034376;28;20196;-83
2022/08/11 10:02:57;;;;;;;5.28;4.80;;;30.50;27.40;;;;;;5034706;28;20184;-82
2022/08/11 10:08:11;;;;;;;4.63;4.22;;;30.50;26.90;;;;;;5046688;28;20250;-82
2022/08/11 10:10:38;;;;;;;5.05;4.57;;;30.40;27.00;;;;;;5046435;28;20185;-83
2022/08/11 10:13:12;;;;;;;5.45;4.93;;;29.90;27.60;;;;;;5045972;28;20196;-82
2022/08/11 10:15:44;;;;;;;7.47;5.00;;;29.80;28.10;;;;;;5048122;28;20176;-82
2022/08/11 10:21:10;;;;;;;5.40;5.00;;;29.80;27.50;;;;;;5055406;28;20204;-81
2022/08/11 10:34:44;;;;;;;5.03;4.63;;;30.20;26.50;;;;;;5043370;28;20214;-83
2022/08/11 10:37:10;;;;;;;5.63;4.50;;;30.40;26.60;;;;;;5042922;28;20742;-83
2022/08/11 10:39:37;;;;;;;5.22;4.70;;;30.60;26.30;;;;;;5044265;28;20469;-83
2022/08/11 10:44:52;;;;;;;5.57;5.25;;;30.70;26.20;;;;;;5044437;28;20207;-83
2022/08/11 10:47:34;;;;;;;5.30;5.00;;;31.00;26.40;;;;;;5044169;28;20185;-83
2022/08/11 11:01:08;;;;;;;5.40;4.90;;;31.70;25.00;;;;;;5041346;28;20211;-84
2022/08/11 11:03:35;;;;;;;5.20;4.70;;;31.80;24.90;;;;;;5040251;28;20193;-84
2022/08/11 11:06:12;;;;;;;4.72;4.40;;;32.10;25.20;;;;;;5047947;28;20189;-84
2022/08/11 11:08:53;;;;;;;4.65;4.35;;;31.60;25.10;;;;;;5047070;28;20215;-84
2022/08/11 11:19:59;;;;;;;4.80;4.50;;;31.50;25.00;;;;;;5045899;28;20211;-84
2022/08/11 11:22:37;;;;;;;4.18;3.75;;;31.80;24.60;;;;;;5045553;28;20207;-83
2022/08/11 11:25:24;;;;;;;4.63;4.28;;;32.00;23.80;;;;;;5046474;28;20193;-83
2022/08/11 11:28:08;;;;;;;4.30;3.95;;;32.00;23.50;;;;;;5045799;28;20181;-83
2022/08/11 11:31:08;;;;;;;6.03;4.13;;;32.80;22.40;;;;;;5050838;28;20172;-84
2022/08/11 11:34:22;;;;;;;4.63;4.32;;;33.10;22.20;;;;;;5046191;28;20227;-84
2022/08/11 11:36:56;;;;;;;4.68;4.32;;;33.30;22.00;;;;;;5038158;28;20173;-83
2022/08/11 11:39:27;;;;;;;5.15;4.75;;;33.30;22.00;;;;;;5059152;28;20236;-83
2022/08/11 11:41:55;;;;;;;4.88;4.57;;;33.50;21.80;;;;;;5044251;28;20185;-85
2022/08/11 11:44:22;;;;;;;4.95;4.57;;;33.90;21.50;;;;;;5041428;28;20546;-86
2022/08/11 11:46:50;;;;;;;4.72;4.53;;;33.90;21.10;;;;;;5041715;28;20196;-85
2022/08/11 11:49:18;;;;;;;5.28;4.97;;;34.10;21.70;;;;;;5040563;28;20209;-85
2022/08/11 11:51:46;;;;;;;5.38;4.88;;;34.10;21.60;;;;;;5040636;28;20212;-84
2022/08/11 11:54:14;;;;;;;4.78;4.47;;;33.80;21.10;;;;;;5042977;28;20405;-84
2022/08/11 11:56:41;;;;;;;4.80;4.50;;;34.00;21.60;;;;;;5041095;28;20575;-82
2022/08/11 12:01:54;;;;;;;5.97;4.60;;;34.40;21.30;;;;;;5041619;28;20210;-83
2022/08/11 12:04:21;;;;;;;4.90;4.50;;;34.80;20.80;;;;;;5037333;28;20189;-83
2022/08/11 12:06:47;;;;;;;5.07;4.63;;;34.80;20.70;;;;;;5043869;28;20436;-83
2022/08/11 12:09:19;;;;;;;5.15;4.68;;;34.30;21.20;;;;;;5042776;28;20228;-84
2022/08/11 12:14:30;;;;;;;4.97;4.63;;;34.10;21.40;;;;;;5043372;28;20223;-82
2022/08/11 12:16:57;;;;;;;5.85;5.35;;;34.50;21.10;;;;;;5046343;28;20212;-82
2022/08/11 12:19:27;;;;;;;5.20;4.70;;;34.80;20.40;;;;;;5046457;28;20296;-83
2022/08/11 12:27:26;;;;;;;4.70;4.40;;;34.90;20.40;;;;;;5045589;28;20250;-84
2022/08/11 12:30:08;;;;;;;5.35;5.00;;;34.80;20.40;;;;;;5045011;28;20267;-84
2022/08/11 12:32:35;;;;;;;5.47;5.05;;;35.10;20.10;;;;;;5039722;28;20204;-84
2022/08/11 12:35:02;;;;;;;5.53;5.03;;;35.40;20.10;;;;;;5041899;28;20195;-83
2022/08/11 12:37:54;;;;;;;5.10;4.80;;;35.40;19.80;;;;;;5043773;28;20197;-83
2022/08/11 12:46:05;;;;;;;6.78;6.18;;;35.50;19.70;;;;;;5041120;28;20196;-85
2022/08/11 12:54:33;;;;;;;5.28;4.97;;;35.20;20.00;;;;;;5047231;28;20323;-85
2022/08/11 13:05:31;;;;;;;5.28;4.88;;;35.70;19.40;;;;;;5040514;28;20208;-85
2022/08/11 13:08:01;;;;;;;5.47;5.18;;;35.90;18.80;;;;;;5052501;28;20173;-83
2022/08/11 13:13:16;;;;;;;5.40;5.10;;;36.40;18.90;;;;;;5025569;28;20689;-85
2022/08/11 13:15:42;;;;;;;5.78;5.28;;;36.80;18.50;;;;;;5045136;28;20181;-84
2022/08/11 13:18:09;;;;;;;5.50;5.10;;;36.80;18.40;;;;;;5045871;28;20277;-85
2022/08/11 13:20:36;;;;;;;5.78;5.30;;;36.40;18.60;;;;;;5046740;28;20181;-84
2022/08/11 13:23:02;;;;;;;5.55;5.25;;;36.70;18.50;;;;;;5044849;28;20185;-85
2022/08/11 13:25:31;;;;;;;5.43;5.13;;;36.50;18.80;;;;;;5045179;28;20189;-84
2022/08/11 13:27:59;;;;;;;5.05;4.82;;;36.00;19.40;;;;;;5043232;28;20208;-85
2022/08/11 13:33:13;;;;;;;5.70;5.22;;;36.90;18.30;;;;;;5045915;28;20655;-84
2022/08/11 13:35:40;;;;;;;5.60;5.28;;;36.90;18.30;;;;;;5045552;28;20504;-85
2022/08/11 13:38:12;;;;;;;6.00;5.50;;;36.70;18.60;;;;;;5042729;28;20212;-84
2022/08/11 13:40:39;;;;;;;5.85;5.47;;;36.80;18.40;;;;;;5042198;28;20191;-84
2022/08/11 13:43:05;;;;;;;5.88;5.57;;;36.60;19.10;;;;;;5042974;28;20281;-85
2022/08/11 13:45:32;;;;;;;6.32;5.72;;;36.80;18.50;;;;;;5043326;28;20185;-85
2022/08/11 13:48:00;;;;;;;6.07;5.57;;;37.00;18.50;;;;;;5042072;28;20215;-85
2022/08/11 13:51:29;;;;;;;5.50;5.20;;;36.70;18.30;;;;;;5042253;28;20235;-84
2022/08/11 13:53:15;;;;;;;6.05;5.65;;;36.60;18.20;;;;;;5040895;28;20825;-85
2022/08/11 13:55:42;;;;;;;5.90;5.60;;;36.90;17.90;;;;;;5042493;28;20184;-84
2022/08/11 13:58:09;;;;;;;6.20;5.70;;;37.10;18.10;;;;;;5042520;28;20212;-84
2022/08/11 14:00:36;;;;;;;5.47;5.18;;;37.00;18.60;;;;;;5042118;28;20643;-84
2022/08/11 14:03:07;;;;;;;5.70;5.30;;;37.00;18.40;;;;;;5042120;28;20252;-84
2022/08/11 14:05:38;;;;;;;5.40;5.10;;;36.70;18.60;;;;;;5044044;28;20177;-84
2022/08/11 14:08:11;;;;;;;5.93;5.30;;;36.60;18.80;;;;;;5039790;28;20180;-85
2022/08/11 14:10:38;;;;;;;6.13;5.57;;;37.00;18.50;;;;;;5045661;28;20184;-85
2022/08/11 14:16:01;;;;;;;7.05;5.53;;;38.00;17.60;;;;;;5045300;28;20273;-85
2022/08/11 14:18:29;;;;;;;5.93;5.53;;;38.30;17.20;;;;;;5042060;28;20208;-85
2022/08/11 14:23:49;;;;;;;6.03;5.60;;;38.40;17.10;;;;;;5042096;28;20272;-85
2022/08/11 14:26:22;;;;;;;6.13;5.60;;;38.70;16.80;;;;;;5043631;28;20419;-84
2022/08/11 14:28:53;;;;;;;6.07;5.60;;;38.00;17.80;;;;;;5040395;28;20220;-84
2022/08/11 14:31:22;;;;;;;6.45;6.05;;;38.20;17.10;;;;;;5037286;28;20184;-84
2022/08/11 14:33:49;;;;;;;6.93;6.25;;;38.80;16.60;;;;;;5041338;28;20199;-85
2022/08/11 14:36:15;;;;;;;6.47;5.93;;;38.60;16.70;;;;;;5042264;28;20184;-85
2022/08/11 14:38:41;;;;;;;6.38;5.97;;;38.80;16.40;;;;;;5021950;28;20278;-86
2022/08/11 14:49:27;;;;;;;6.53;6.13;;;38.90;16.10;;;;;;5039104;28;20266;-85
2022/08/11 14:51:54;;;;;;;6.82;6.18;;;38.70;16.40;;;;;;5040816;28;20666;-84
2022/08/11 14:57:15;;;;;;;6.10;5.70;;;38.40;17.20;;;;;;5040333;28;20262;-86
2022/08/11 14:59:43;;;;;;;6.85;6.35;;;38.50;17.40;;;;;;5041585;28;20292;-86
2022/08/11 15:04:57;;;;;;;8.88;6.07;;;38.70;16.30;;;;;;5040151;28;20230;-86
2022/08/11 15:07:28;;;;;;;6.80;6.20;;;38.60;16.60;;;;;;5041658;28;20195;-85
2022/08/11 15:09:59;;;;;;;6.20;5.80;;;38.40;16.70;;;;;;5040711;28;20220;-87
2022/08/11 15:12:26;;;;;;;6.28;5.70;;;38.10;17.00;;;;;;5041878;28;20195;-85
2022/08/11 15:17:39;;;;;;;6.07;5.53;;;37.70;17.10;;;;;;5041598;28;20215;-86
2022/08/11 15:25:48;;;;;;;5.55;5.25;;;37.90;16.50;;;;;;5037174;28;20190;-85
2022/08/11 15:45:46;;;;;;;5.93;5.53;;;38.10;16.40;;;;;;5042650;28;20693;-85
2022/08/11 15:47:58;;;;;;;6.53;6.03;;;38.70;16.50;;;;;;5038710;28;20203;-85
2022/08/11 15:50:31;;;;;;;6.53;6.13;;;38.20;16.30;;;;;;5042738;28;20281;-85
2022/08/11 15:53:01;;;;;;;6.38;5.97;;;38.00;16.60;;;;;;5043326;28;20257;-87
2022/08/11 15:55:30;;;;;;;6.00;5.70;;;37.60;16.50;;;;;;5050305;28;20200;-88
2022/08/11 16:06:30;;;;;;;6.45;5.97;;;37.40;17.80;;;;;;5044606;28;20235;-86
2022/08/11 16:08:58;;;;;;;5.88;5.47;;;37.60;17.10;;;;;;5046680;28;20208;-85
2022/08/11 16:11:25;;;;;;;5.75;5.32;;;37.80;16.90;;;;;;5044443;28;20188;-84
2022/08/11 16:16:38;;;;;;;5.95;5.45;;;38.10;16.30;;;;;;5046543;28;20400;-87
2022/08/11 16:19:08;;;;;;;7.85;5.85;;;38.50;16.10;;;;;;5034816;28;20225;-85
2022/08/11 16:21:38;;;;;;;8.38;7.47;;;38.30;16.60;;;;;;5037826;28;20211;-87
2022/08/11 16:24:08;;;;;;;6.70;6.20;;;38.00;16.40;;;;;;5038710;28;20187;-85
2022/08/11 16:26:38;;;;;;;5.60;5.30;;;37.70;16.30;;;;;;5039296;28;20187;-85
2022/08/11 16:29:06;;;;;;;6.07;5.57;;;37.60;16.20;;;;;;5037776;28;20216;-85
2022/08/11 16:31:34;;;;;;;6.22;5.82;;;37.70;16.90;;;;;;5036266;28;20176;-84
2022/08/11 16:34:01;;;;;;;6.00;5.70;;;37.20;17.40;;;;;;5039228;28;20184;-88
2022/08/11 16:39:17;;;;;;;5.60;5.20;;;36.60;17.30;;;;;;5041080;28;20273;-85
2022/08/11 16:47:17;;;;;;;6.80;6.38;;;37.30;16.70;;;;;;5024602;28;20195;-86
2022/08/11 16:49:52;;;;;;;6.32;5.90;;;37.90;16.30;;;;;;5020502;28;20823;-85
2022/08/11 16:52:18;;;;;;;5.72;5.35;;;37.70;16.70;;;;;;5036046;28;20187;-85
2022/08/11 16:54:47;;;;;;;5.60;5.20;;;37.50;17.00;;;;;;5037361;28;20262;-87
2022/08/11 17:00:11;;;;;;;5.40;5.10;;;36.60;17.50;;;;;;5032414;28;20207;-85
2022/08/11 17:14:00;;;;;;;5.32;4.93;;;35.80;17.60;;;;;;5039785;28;20222;-86
2022/08/11 17:16:34;;;;;;;5.00;4.70;;;35.40;17.90;;;;;;5037506;28;20299;-85
2022/08/11 17:19:21;;;;;;;5.45;4.95;;;35.20;18.10;;;;;;5033030;28;20293;-87
2022/08/11 17:24:38;;;;;;;5.40;4.93;;;34.50;18.60;;;;;;5035491;28;20238;-86
2022/08/11 17:27:06;;;;;;;5.55;5.15;;;34.70;18.50;;;;;;5035569;28;20266;-84
2022/08/11 17:29:50;;;;;;;5.43;4.90;;;34.50;18.70;;;;;;5033895;28;20209;-85
2022/08/11 17:35:30;;;;;;;5.20;4.80;;;34.10;19.40;;;;;;5035702;28;20310;-84
2022/08/11 17:38:02;;;;;;;5.65;4.95;;;34.00;19.80;;;;;;5040822;28;20235;-84
2022/08/11 17:40:31;;;;;;;4.43;4.13;;;33.50;19.80;;;;;;5039159;28;20173;-85
2022/08/11 17:48:34;;;;;;;4.60;4.30;;;33.40;20.20;;;;;;5031672;28;20300;-84
2022/08/11 17:51:03;;;;;;;5.13;4.82;;;33.20;20.40;;;;;;5030039;28;20285;-85
2022/08/11 18:01:53;;;;;;;4.70;4.28;;;32.80;21.20;;;;;;5037288;28;20274;-85
2022/08/11 18:04:21;;;;;;;7.13;4.25;;;32.70;20.40;;;;;;5038768;28;20173;-85
2022/08/11 18:06:47;;;;;;;4.93;4.50;;;32.60;20.60;;;;;;5041705;28;20718;-86
